createdAt,value
2023-12-07T00:02:11.900Z,7.37
2023-12-07T00:05:13.719Z,8.10
2023-12-07T00:08:15.295Z,7.63
2023-12-07T00:11:16.889Z,7.20
2023-12-07T00:14:18.502Z,7.97
2023-12-07T00:17:20.125Z,7.10
2023-12-07T00:20:21.737Z,8.10
2023-12-07T00:23:23.298Z,7.50
2023-12-07T00:26:25.205Z,7.83
2023-12-07T00:29:26.922Z,7.20
2023-12-07T00:32:28.495Z,7.07
2023-12-07T00:35:30.346Z,8.10
2023-12-07T00:38:32.111Z,8.17
2023-12-07T00:41:33.697Z,8.00
2023-12-07T00:44:35.389Z,7.80
2023-12-07T00:47:37.013Z,8.07
2023-12-07T00:50:38.628Z,8.60
2023-12-07T00:53:40.195Z,7.80
2023-12-07T00:56:41.773Z,8.53
2023-12-07T00:59:43.342Z,8.03
2023-12-07T01:02:44.969Z,8.67
2023-12-07T01:05:46.746Z,9.20
2023-12-07T01:08:48.837Z,8.33
2023-12-07T01:11:50.461Z,7.97
2023-12-07T01:14:52.141Z,8.53
2023-12-07T01:17:55.056Z,8.10
2023-12-07T01:20:56.970Z,8.80
2023-12-07T01:24:06.214Z,8.47
2023-12-07T01:27:12.538Z,8.60
2023-12-07T01:30:14.180Z,8.17
2023-12-07T01:33:15.786Z,9.30
2023-12-07T01:36:17.433Z,7.93
2023-12-07T01:39:19.073Z,8.80
2023-12-07T01:42:20.685Z,9.40
2023-12-07T01:45:22.293Z,8.90
2023-12-07T01:48:23.931Z,8.87
2023-12-07T01:51:25.684Z,8.90
2023-12-07T01:54:27.227Z,9.60
2023-12-07T01:57:28.839Z,9.90
2023-12-07T02:00:30.390Z,8.77
2023-12-07T02:03:31.930Z,9.80
2023-12-07T02:06:33.609Z,10.40
2023-12-07T02:09:35.168Z,8.93
2023-12-07T02:12:36.759Z,8.20
2023-12-07T02:15:38.358Z,9.03
2023-12-07T02:18:39.992Z,9.10
2023-12-07T02:21:41.613Z,9.27
2023-12-07T02:24:43.148Z,10.70
2023-12-07T02:27:44.751Z,9.50
2023-12-07T02:30:46.322Z,9.37
2023-12-07T02:33:48.402Z,9.67
2023-12-07T02:36:50.048Z,8.30
2023-12-07T02:39:51.637Z,9.60
2023-12-07T02:42:53.216Z,9.87
2023-12-07T02:45:54.805Z,9.43
2023-12-07T02:48:56.637Z,10.07
2023-12-07T02:51:58.341Z,10.23
2023-12-07T02:54:59.980Z,9.00
2023-12-07T02:58:01.737Z,9.97
2023-12-07T03:01:03.581Z,9.33
2023-12-07T03:04:05.441Z,11.17
2023-12-07T03:07:07.188Z,9.30
2023-12-07T03:10:08.944Z,9.40
2023-12-07T03:13:10.670Z,9.80
2023-12-07T03:16:12.404Z,9.83
2023-12-07T03:19:14.141Z,9.80
2023-12-07T03:22:15.745Z,9.10
2023-12-07T03:25:17.679Z,10.50
2023-12-07T03:28:19.266Z,9.07
2023-12-07T03:31:20.970Z,8.90
2023-12-07T03:34:22.614Z,9.87
2023-12-07T03:37:24.274Z,8.73
2023-12-07T03:40:26.111Z,9.23
2023-12-07T03:43:27.723Z,9.07
2023-12-07T03:46:29.465Z,9.33
2023-12-07T03:49:31.141Z,8.50
2023-12-07T03:52:32.847Z,9.97
2023-12-07T03:55:34.472Z,10.20
2023-12-07T03:58:36.287Z,9.47
2023-12-07T04:01:38.158Z,9.47
2023-12-07T04:04:39.920Z,9.37
2023-12-07T04:07:41.584Z,9.77
2023-12-07T04:10:43.299Z,9.33
2023-12-07T04:13:45.059Z,9.40
2023-12-07T04:16:46.698Z,10.53
2023-12-07T04:19:48.314Z,9.40
2023-12-07T04:22:49.921Z,9.17
2023-12-07T04:25:51.522Z,9.83
2023-12-07T04:28:53.173Z,10.67
2023-12-07T04:31:57.618Z,10.00
2023-12-07T04:34:59.247Z,9.90
2023-12-07T04:38:00.838Z,10.30
2023-12-07T04:41:02.441Z,10.53
2023-12-07T04:44:04.001Z,10.47
2023-12-07T04:47:05.612Z,10.73
2023-12-07T04:50:07.228Z,11.00
2023-12-07T04:53:09.140Z,10.10
2023-12-07T04:56:10.721Z,10.63
2023-12-07T04:59:12.325Z,11.10
2023-12-07T05:02:13.923Z,9.90
2023-12-07T05:05:15.510Z,12.10
2023-12-07T05:08:17.193Z,12.13
2023-12-07T05:11:18.738Z,12.97
2023-12-07T05:14:20.316Z,11.90
2023-12-07T05:17:21.950Z,12.53
2023-12-07T05:20:23.604Z,12.10
2023-12-07T05:23:25.173Z,12.30
2023-12-07T05:26:26.782Z,13.23
2023-12-07T05:29:28.362Z,12.20
2023-12-07T05:32:30.013Z,12.37
2023-12-07T05:35:31.738Z,12.20
2023-12-07T05:38:33.301Z,13.77
2023-12-07T05:41:34.832Z,11.40
2023-12-07T05:44:36.427Z,12.80
2023-12-07T05:47:37.998Z,12.23
2023-12-07T05:50:39.598Z,12.43
2023-12-07T05:53:41.133Z,13.13
2023-12-07T05:56:42.805Z,13.50
2023-12-07T05:59:44.378Z,14.03
2023-12-07T06:02:46.013Z,13.37
2023-12-07T06:05:47.728Z,12.43
2023-12-07T06:08:49.345Z,13.47
2023-12-07T06:11:50.988Z,12.13
2023-12-07T06:14:52.577Z,12.93
2023-12-07T06:17:54.218Z,13.93
2023-12-07T06:20:56.142Z,13.77
2023-12-07T06:23:57.839Z,12.93
2023-12-07T06:26:59.612Z,12.83
2023-12-07T06:30:01.198Z,13.47
2023-12-07T06:33:02.779Z,12.83
2023-12-07T06:36:04.550Z,12.67
2023-12-07T06:39:06.286Z,12.67
2023-12-07T06:42:07.844Z,13.80
2023-12-07T06:45:09.408Z,13.50
2023-12-07T06:48:11.120Z,13.83
2023-12-07T06:51:12.741Z,13.03
2023-12-07T06:54:14.344Z,12.53
2023-12-07T06:57:15.962Z,11.90
2023-12-07T07:00:17.547Z,13.50
2023-12-07T07:03:19.213Z,12.33
2023-12-07T07:06:20.788Z,14.20
2023-12-07T07:09:22.388Z,11.93
2023-12-07T07:12:23.991Z,12.67
2023-12-07T07:15:25.645Z,12.00
2023-12-07T07:18:27.352Z,13.53
2023-12-07T07:21:28.896Z,12.93
2023-12-07T07:24:30.456Z,12.93
2023-12-07T07:27:32.009Z,12.77
2023-12-07T07:30:33.670Z,12.70
2023-12-07T07:33:35.287Z,11.83
2023-12-07T07:36:36.873Z,12.50
2023-12-07T07:39:38.506Z,13.20
2023-12-07T07:42:40.747Z,13.43
2023-12-07T07:45:42.536Z,13.43
2023-12-07T07:48:44.173Z,12.90
2023-12-07T07:51:45.847Z,13.30
2023-12-07T07:54:47.472Z,12.97
2023-12-07T07:57:49.077Z,12.60
2023-12-07T08:00:50.692Z,13.57
2023-12-07T08:03:52.325Z,13.27
2023-12-07T08:06:54.353Z,13.43
2023-12-07T08:09:55.957Z,12.53
2023-12-07T08:12:57.553Z,12.67
2023-12-07T08:15:59.697Z,12.10
2023-12-07T08:19:01.452Z,12.43
2023-12-07T08:22:03.172Z,12.90
2023-12-07T08:25:08.835Z,12.60
2023-12-07T08:28:13.170Z,12.77
2023-12-07T08:31:14.861Z,11.33
2023-12-07T08:34:16.560Z,12.70
2023-12-07T08:37:18.345Z,12.37
2023-12-07T08:40:20.042Z,13.40
2023-12-07T08:43:21.731Z,13.80
2023-12-07T08:46:23.365Z,13.30
2023-12-07T08:49:25.088Z,13.90
2023-12-07T08:52:35.803Z,13.50
2023-12-07T08:55:44.102Z,12.27
2023-12-07T08:58:45.704Z,13.20
2023-12-07T09:01:47.551Z,13.00
2023-12-07T09:04:49.464Z,12.13
2023-12-07T09:07:51.157Z,13.37
2023-12-07T09:10:52.745Z,13.80
2023-12-07T09:13:54.335Z,13.03
2023-12-07T09:16:56.032Z,12.97
2023-12-07T09:19:57.638Z,14.03
2023-12-07T09:22:59.322Z,13.47
2023-12-07T09:26:01.127Z,12.73
2023-12-07T09:29:02.762Z,12.63
2023-12-07T09:32:04.347Z,12.87
2023-12-07T09:35:06.241Z,13.73
2023-12-07T09:38:10.056Z,14.27
2023-12-07T09:41:11.767Z,14.37
2023-12-07T09:44:13.543Z,13.53
2023-12-07T09:47:16.149Z,13.73
2023-12-07T09:50:18.967Z,12.73
2023-12-07T09:53:20.588Z,12.70
2023-12-07T09:56:22.312Z,13.83
2023-12-07T09:59:24.141Z,13.30
2023-12-07T10:02:25.758Z,15.20
2023-12-07T10:05:27.715Z,13.07
2023-12-07T10:08:29.827Z,14.83
2023-12-07T10:11:31.449Z,12.27
2023-12-07T10:14:33.116Z,12.80
2023-12-07T10:17:35.070Z,12.93
2023-12-07T10:20:36.666Z,12.83
2023-12-07T10:23:38.286Z,14.30
2023-12-07T10:26:40.924Z,13.50
2023-12-07T10:29:42.632Z,13.17
2023-12-07T10:32:44.356Z,13.40
2023-12-07T10:35:46.160Z,14.07
2023-12-07T10:38:47.834Z,14.47
2023-12-07T10:41:49.622Z,13.47
2023-12-07T10:44:51.217Z,15.17
2023-12-07T10:47:52.953Z,13.67
2023-12-07T10:50:54.545Z,12.97
2023-12-07T10:53:56.119Z,13.00
2023-12-07T10:56:57.698Z,14.03
2023-12-07T10:59:59.238Z,13.43
2023-12-07T11:03:01.057Z,13.33
2023-12-07T11:06:02.706Z,13.97
2023-12-07T11:09:09.612Z,12.57
2023-12-07T11:12:12.738Z,13.73
2023-12-07T11:15:15.210Z,14.17
2023-12-07T11:18:16.844Z,15.33
2023-12-07T11:21:18.501Z,14.67
2023-12-07T11:24:20.446Z,13.93
2023-12-07T11:27:22.188Z,15.60
2023-12-07T11:30:23.877Z,12.93
2023-12-07T11:33:25.543Z,12.87
2023-12-07T11:36:27.759Z,13.17
2023-12-07T11:39:30.473Z,13.83
2023-12-07T11:42:32.132Z,12.80
2023-12-07T11:45:33.745Z,13.83
2023-12-07T11:48:35.574Z,13.10
2023-12-07T11:51:37.583Z,14.07
2023-12-07T11:54:39.187Z,12.57
2023-12-07T11:57:40.718Z,13.50
2023-12-07T12:00:42.407Z,14.13
2023-12-07T12:03:44.067Z,13.83
2023-12-07T12:06:45.822Z,12.73
2023-12-07T12:09:47.475Z,13.37
2023-12-07T12:12:49.408Z,14.67
2023-12-07T12:15:50.983Z,12.70
2023-12-07T12:18:52.622Z,14.10
2023-12-07T12:21:54.184Z,15.00
2023-12-07T12:24:55.757Z,14.60
2023-12-07T12:27:57.345Z,13.47
2023-12-07T12:30:58.952Z,13.63
2023-12-07T12:34:03.120Z,14.47
2023-12-07T12:37:07.603Z,15.03
2023-12-07T12:40:09.470Z,14.20
2023-12-07T12:43:11.034Z,12.90
2023-12-07T12:46:13.017Z,12.73
2023-12-07T12:49:14.922Z,13.93
2023-12-07T12:52:16.532Z,13.70
2023-12-07T12:55:20.634Z,13.40
2023-12-07T12:58:22.272Z,13.43
2023-12-07T13:01:23.968Z,13.83
2023-12-07T13:04:26.754Z,13.70
2023-12-07T13:07:29.030Z,13.37
2023-12-07T13:10:31.032Z,14.33
2023-12-07T13:13:32.628Z,12.90
2023-12-07T13:16:34.207Z,12.57
2023-12-07T13:19:36.110Z,13.47
2023-12-07T13:22:37.896Z,12.53
2023-12-07T13:25:39.502Z,13.27
2023-12-07T13:28:41.401Z,14.37
2023-12-07T13:31:43.171Z,13.37
2023-12-07T13:34:49.987Z,13.80
2023-12-07T13:37:54.130Z,12.90
2023-12-07T13:40:55.660Z,13.03
2023-12-07T13:43:57.314Z,13.60
2023-12-07T13:46:59.067Z,12.17
2023-12-07T13:50:00.781Z,13.73
2023-12-07T13:53:05.357Z,12.90
2023-12-07T13:56:07.168Z,13.03
2023-12-07T13:59:08.771Z,12.30
2023-12-07T14:02:10.308Z,12.33
2023-12-07T14:05:11.993Z,13.30
2023-12-07T14:08:13.647Z,12.17
2023-12-07T14:11:19.186Z,12.47
2023-12-07T14:14:20.788Z,12.23
2023-12-07T14:17:22.363Z,12.80
2023-12-07T14:20:35.533Z,13.33
2023-12-07T14:23:51.523Z,12.80
2023-12-07T14:26:56.588Z,12.27
2023-12-07T14:29:58.360Z,11.37
2023-12-07T14:33:00.354Z,12.00
2023-12-07T14:36:02.159Z,12.27
2023-12-07T14:39:03.902Z,12.60
2023-12-07T14:42:05.505Z,11.17
2023-12-07T14:45:07.078Z,11.17
2023-12-07T14:48:08.775Z,13.43
2023-12-07T14:51:10.440Z,11.37
2023-12-07T14:54:12.771Z,12.13
2023-12-07T14:57:16.253Z,10.93
2023-12-07T15:00:17.808Z,11.40
2023-12-07T15:03:19.456Z,11.67
2023-12-07T15:06:21.261Z,10.43
2023-12-07T15:09:22.955Z,12.27
2023-12-07T15:12:26.028Z,11.33
2023-12-07T15:15:29.083Z,12.30
2023-12-07T15:18:30.779Z,12.73
2023-12-07T15:21:32.419Z,12.00
2023-12-07T15:24:36.132Z,11.13
2023-12-07T15:27:38.710Z,11.73
2023-12-07T15:30:40.284Z,11.53
2023-12-07T15:33:42.053Z,11.87
2023-12-07T15:36:43.975Z,11.57
2023-12-07T15:39:45.761Z,12.03
2023-12-07T15:42:47.413Z,11.53
2023-12-07T15:45:49.122Z,12.40
2023-12-07T15:48:50.804Z,11.23
2023-12-07T15:51:53.820Z,11.33
2023-12-07T15:54:56.352Z,11.63
2023-12-07T15:57:58.592Z,11.77
2023-12-07T16:01:00.293Z,11.93
2023-12-07T16:04:01.962Z,11.40
2023-12-07T16:07:04.064Z,11.90
2023-12-07T16:10:05.764Z,10.03
2023-12-07T16:13:07.368Z,10.83
2023-12-07T16:16:08.934Z,12.93
2023-12-07T16:19:10.687Z,11.30
2023-12-07T16:22:12.315Z,11.93
2023-12-07T16:25:17.309Z,11.23
2023-12-07T16:28:22.166Z,11.53
2023-12-07T16:31:23.760Z,11.97
2023-12-07T16:34:25.521Z,11.50
2023-12-07T16:37:27.708Z,11.63
2023-12-07T16:40:29.552Z,11.30
2023-12-07T16:43:31.162Z,10.93
2023-12-07T16:46:32.847Z,11.53
2023-12-07T16:49:34.505Z,11.30
2023-12-07T16:52:41.811Z,11.50
2023-12-07T16:55:46.669Z,10.23
2023-12-07T16:58:48.222Z,11.33
2023-12-07T17:01:49.808Z,10.27
2023-12-07T17:04:51.633Z,10.10
2023-12-07T17:07:53.194Z,11.63
2023-12-07T17:10:54.858Z,11.47
2023-12-07T17:13:56.396Z,10.93
2023-12-07T17:16:57.982Z,11.83
2023-12-07T17:19:59.693Z,10.93
2023-12-07T17:23:01.322Z,11.27
2023-12-07T17:26:02.902Z,10.97
2023-12-07T17:29:04.512Z,11.53
2023-12-07T17:32:06.097Z,10.37
2023-12-07T17:35:07.791Z,12.00
2023-12-07T17:38:09.377Z,10.90
2023-12-07T17:41:10.949Z,11.63
2023-12-07T17:44:12.940Z,11.87
2023-12-07T17:47:14.593Z,10.50
2023-12-07T17:50:16.171Z,11.03
2023-12-07T17:53:17.719Z,10.07
2023-12-07T17:56:19.294Z,10.93
2023-12-07T17:59:20.884Z,10.27
2023-12-07T18:02:22.479Z,10.67
2023-12-07T18:05:24.178Z,10.43
2023-12-07T18:08:25.991Z,9.87
2023-12-07T18:11:27.748Z,10.17
2023-12-07T18:14:29.406Z,11.03
2023-12-07T18:17:31.536Z,10.77
2023-12-07T18:20:33.685Z,10.20
2023-12-07T18:23:35.380Z,10.47
2023-12-07T18:26:36.953Z,10.90
2023-12-07T18:29:38.746Z,11.30
2023-12-07T18:32:40.594Z,11.13
2023-12-07T18:35:42.345Z,10.37
2023-12-07T18:38:44.363Z,10.47
2023-12-07T18:41:45.999Z,10.20
2023-12-07T18:44:47.677Z,9.47
2023-12-07T18:47:49.404Z,10.63
2023-12-07T18:50:51.140Z,11.13
2023-12-07T18:53:52.867Z,10.53
2023-12-07T18:56:54.477Z,10.73
2023-12-07T18:59:56.184Z,10.13
2023-12-07T19:02:57.754Z,10.37
2023-12-07T19:05:59.468Z,10.63
2023-12-07T19:09:01.297Z,10.07
2023-12-07T19:12:02.973Z,10.50
2023-12-07T19:15:04.644Z,10.53
2023-12-07T19:18:06.386Z,10.30
2023-12-07T19:21:08.205Z,10.43
2023-12-07T19:24:09.917Z,11.17
2023-12-07T19:27:11.627Z,10.67
2023-12-07T19:30:13.240Z,11.00
2023-12-07T19:33:14.910Z,10.13
2023-12-07T19:36:16.571Z,10.90
2023-12-07T19:39:18.171Z,10.70
2023-12-07T19:42:19.735Z,10.27
2023-12-07T19:45:21.323Z,10.63
2023-12-07T19:48:23.182Z,10.27
2023-12-07T19:51:24.805Z,10.67
2023-12-07T19:54:26.381Z,10.13
2023-12-07T19:57:28.319Z,9.97
2023-12-07T20:00:29.973Z,11.47
2023-12-07T20:03:31.657Z,11.43
2023-12-07T20:06:38.877Z,10.27
2023-12-07T20:09:41.409Z,9.70
2023-12-07T20:12:43.024Z,10.40
2023-12-07T20:15:44.592Z,10.50
2023-12-07T20:18:46.344Z,10.03
2023-12-07T20:21:48.055Z,11.33
2023-12-07T20:24:49.793Z,10.00
2023-12-07T20:27:52.199Z,10.60
2023-12-07T20:30:53.790Z,10.27
2023-12-07T20:33:55.451Z,10.33
2023-12-07T20:36:57.169Z,9.87
2023-12-07T20:39:58.814Z,11.47
2023-12-07T20:43:00.689Z,11.03
2023-12-07T20:46:02.504Z,10.17
2023-12-07T20:49:04.226Z,10.20
2023-12-07T20:52:05.976Z,11.97
2023-12-07T20:55:07.547Z,10.83
2023-12-07T20:58:09.163Z,11.87
2023-12-07T21:01:10.802Z,11.43
2023-12-07T21:04:12.516Z,10.20
2023-12-07T21:07:14.113Z,10.97
2023-12-07T21:10:15.689Z,10.80
2023-12-07T21:13:17.399Z,11.57
2023-12-07T21:16:19.083Z,10.40
2023-12-07T21:19:22.494Z,10.43
2023-12-07T21:22:25.519Z,10.77
2023-12-07T21:25:27.143Z,10.37
2023-12-07T21:28:28.713Z,10.63
2023-12-07T21:31:30.518Z,11.20
2023-12-07T21:34:32.221Z,10.83
2023-12-07T21:37:33.942Z,11.03
2023-12-07T21:40:35.547Z,11.33
2023-12-07T21:43:37.083Z,11.40
2023-12-07T21:46:38.717Z,11.33
2023-12-07T21:49:40.462Z,10.97
2023-12-07T21:52:42.155Z,12.17
2023-12-07T21:55:44.071Z,11.00
2023-12-07T21:58:45.666Z,12.43
2023-12-07T22:01:47.291Z,11.50
2023-12-07T22:04:48.955Z,11.00
2023-12-07T22:07:50.606Z,11.67
2023-12-07T22:10:52.181Z,10.30
2023-12-07T22:13:53.819Z,11.13
2023-12-07T22:16:55.420Z,10.77
2023-12-07T22:19:57.056Z,11.83
2023-12-07T22:22:58.734Z,11.00
2023-12-07T22:26:00.308Z,11.57
2023-12-07T22:29:02.036Z,11.80
2023-12-07T22:32:03.670Z,10.47
2023-12-07T22:35:05.595Z,10.83
2023-12-07T22:38:07.372Z,12.20
2023-12-07T22:41:08.963Z,10.33
2023-12-07T22:44:10.547Z,9.80
2023-12-07T22:47:12.189Z,10.10
2023-12-07T22:50:13.808Z,10.73
2023-12-07T22:53:15.467Z,11.93
2023-12-07T22:56:17.036Z,11.67
2023-12-07T22:59:18.655Z,12.00
2023-12-07T23:02:20.547Z,10.23
2023-12-07T23:05:22.140Z,11.60
2023-12-07T23:08:23.757Z,10.73
2023-12-07T23:11:25.294Z,11.67
2023-12-07T23:14:26.903Z,10.87
2023-12-07T23:17:28.959Z,12.17
2023-12-07T23:20:30.655Z,11.67
2023-12-07T23:23:32.343Z,12.20
2023-12-07T23:26:34.068Z,12.10
2023-12-07T23:29:36.588Z,11.90
2023-12-07T23:32:41.331Z,11.90
2023-12-07T23:35:42.964Z,11.47
2023-12-07T23:38:44.692Z,11.83
2023-12-07T23:41:46.361Z,11.80
2023-12-07T23:44:48.105Z,12.10
2023-12-07T23:47:49.833Z,11.97
2023-12-07T23:50:51.492Z,12.47
2023-12-07T23:53:53.258Z,11.40
2023-12-07T23:56:54.898Z,11.67
2023-12-07T23:59:56.525Z,11.30
